Terminal Aerodrome Forecast
Issued by NWS

Home | Current Version | Previous Version | Text Only | Print | Product List | Glossary On
Versions: 1 2 3 4 5 6 7 8 9 10 11 12 13 14 15 16 17 18 19 20 21 22 23 24
000
FTUS43 KDLH 171100 RRA
TAFHYR
TAF
KHYR 171145Z 1712/1812 VRB03KT P6SM SCT100
     FM172000 36007KT P6SM SCT015 BKN050
     FM172200 02010KT P6SM BKN018 OVC040
     FM180600 07006KT P6SM BKN035=

USA.gov is the U.S. government's official web portal to all federal, state and local government web resources and services.